createdAt,value
2023-07-16T00:14:22.726Z,99960.72
2023-07-16T00:20:54.248Z,99960.64
2023-07-16T00:30:12.308Z,99949.15
2023-07-16T00:32:47.348Z,99951.77
2023-07-16T00:35:20.199Z,99951.86
2023-07-16T00:37:53.274Z,99946.08
2023-07-16T00:40:25.300Z,99945.35
2023-07-16T00:42:57.826Z,99945.31
2023-07-16T00:45:30.530Z,99939.48
2023-07-16T00:48:04.532Z,99943.71
2023-07-16T00:50:40.448Z,99949.90
2023-07-16T00:53:14.629Z,99952.76
2023-07-16T00:55:47.785Z,99952.98
2023-07-16T00:58:22.105Z,99948.98
2023-07-16T01:00:56.133Z,99950.58
2023-07-16T01:03:29.366Z,99951.31
2023-07-16T01:06:07.391Z,99949.42
2023-07-16T01:08:44.892Z,99952.12
2023-07-16T01:11:17.807Z,99949.48
2023-07-16T01:13:50.787Z,99951.71
2023-07-16T01:16:24.438Z,99955.09
2023-07-16T01:18:56.672Z,99963.98
2023-07-16T01:21:37.556Z,99968.48
2023-07-16T01:24:36.512Z,99970.42
2023-07-16T01:27:29.922Z,99961.61
2023-07-16T01:30:05.668Z,99950.80
2023-07-16T01:32:38.801Z,99947.59
2023-07-16T01:35:12.416Z,99943.67
2023-07-16T01:37:44.976Z,99941.31
2023-07-16T01:40:18.134Z,99933.77
2023-07-16T01:42:50.452Z,99947.09
2023-07-16T01:45:22.933Z,99937.06
2023-07-16T01:48:11.806Z,99931.61
2023-07-16T01:50:44.753Z,99929.89
2023-07-16T01:53:17.223Z,99924.53
2023-07-16T01:55:51.533Z,99924.72
2023-07-16T01:58:23.803Z,99917.05
2023-07-16T02:00:56.857Z,99933.58
2023-07-16T02:03:29.719Z,99936.88
2023-07-16T02:06:02.218Z,99928.77
2023-07-16T02:08:34.398Z,99911.23
2023-07-16T02:11:06.786Z,99897.17
2023-07-16T02:13:39.015Z,99897.23
2023-07-16T02:16:11.314Z,99902.33
2023-07-16T02:18:44.021Z,99904.79
2023-07-16T02:21:16.164Z,99900.55
2023-07-16T02:23:50.610Z,99897.89
2023-07-16T02:26:27.023Z,99898.92
2023-07-16T02:29:00.569Z,99901.05
2023-07-16T02:31:33.292Z,99895.97
2023-07-16T02:34:05.890Z,99898.93
2023-07-16T02:36:39.561Z,99909.52
2023-07-16T02:39:11.963Z,99916.00
2023-07-16T02:41:44.001Z,99917.42
2023-07-16T02:44:16.477Z,99921.33
2023-07-16T02:46:48.949Z,99921.76
2023-07-16T02:49:21.464Z,99923.41
2023-07-16T02:51:53.860Z,99926.38
2023-07-16T02:54:26.228Z,99922.24
2023-07-16T02:56:58.647Z,99926.53
2023-07-16T02:59:31.078Z,99943.48
2023-07-16T03:02:03.585Z,99951.41
2023-07-16T03:04:36.294Z,99958.58
2023-07-16T03:07:09.254Z,99966.86
2023-07-16T03:09:41.481Z,99983.77
2023-07-16T03:12:13.800Z,99999.02
2023-07-16T03:14:46.996Z,100015.19
2023-07-16T03:17:19.160Z,100017.27
2023-07-16T03:19:51.622Z,100003.27
2023-07-16T03:22:23.814Z,100012.85
2023-07-16T03:24:56.109Z,100026.45
2023-07-16T03:27:28.467Z,100032.68
2023-07-16T03:30:05.501Z,100038.54
2023-07-16T03:32:51.394Z,100045.60
2023-07-16T03:35:26.321Z,100047.90
2023-07-16T03:37:59.058Z,100054.77
2023-07-16T03:40:32.328Z,100061.02
2023-07-16T03:43:05.001Z,100069.35
2023-07-16T03:45:37.530Z,100072.98
2023-07-16T03:48:10.084Z,100075.38
2023-07-16T03:50:42.501Z,100068.22
2023-07-16T03:53:15.126Z,100083.98
2023-07-16T03:55:47.824Z,100073.45
2023-07-16T03:58:19.969Z,100085.19
2023-07-16T04:00:53.351Z,100093.16
2023-07-16T04:03:27.841Z,100103.00
2023-07-16T04:06:07.156Z,100109.00
2023-07-16T04:08:39.927Z,100110.09
2023-07-16T04:11:12.040Z,100113.46
2023-07-16T04:13:44.325Z,100118.67
2023-07-16T04:16:16.946Z,100117.20
2023-07-16T04:18:50.768Z,100124.70
2023-07-16T04:21:24.166Z,100128.09
2023-07-16T04:23:56.551Z,100135.19
2023-07-16T04:26:28.899Z,100139.41
2023-07-16T04:29:01.346Z,100147.95
2023-07-16T04:31:33.815Z,100150.50
2023-07-16T04:34:06.329Z,100144.14
2023-07-16T04:36:41.298Z,100152.19
2023-07-16T04:39:14.321Z,100156.67
2023-07-16T04:41:47.014Z,100149.16
2023-07-16T04:44:19.782Z,100147.91
2023-07-16T04:46:52.559Z,100156.61
2023-07-16T04:49:25.097Z,100153.89
2023-07-16T04:51:57.347Z,100140.57
2023-07-16T04:54:29.752Z,100151.96
2023-07-16T04:57:02.009Z,100160.25
2023-07-16T04:59:34.757Z,100180.46
2023-07-16T05:02:09.226Z,100190.81
2023-07-16T05:04:41.838Z,100194.46
2023-07-16T05:07:14.325Z,100206.48
2023-07-16T05:09:47.159Z,100210.88
2023-07-16T05:12:19.354Z,100221.10
2023-07-16T05:14:52.128Z,100230.80
2023-07-16T05:17:24.608Z,100227.57
2023-07-16T05:19:57.267Z,100230.92
2023-07-16T05:22:29.589Z,100237.73
2023-07-16T05:25:02.091Z,100241.35
2023-07-16T05:27:34.368Z,100251.61
2023-07-16T05:30:07.933Z,100260.02
2023-07-16T05:32:40.318Z,100263.48
2023-07-16T05:35:13.254Z,100271.98
2023-07-16T05:37:45.910Z,100273.29
2023-07-16T05:40:19.670Z,100273.52
2023-07-16T05:42:51.978Z,100265.34
2023-07-16T05:45:24.497Z,100267.77
2023-07-16T05:47:57.068Z,100259.91
2023-07-16T05:50:29.441Z,100269.49
2023-07-16T05:53:02.011Z,100271.33
2023-07-16T05:55:34.234Z,100261.83
2023-07-16T05:58:06.589Z,100262.95
2023-07-16T06:00:38.848Z,100270.29
2023-07-16T06:03:11.070Z,100280.13
2023-07-16T06:05:44.556Z,100279.00
2023-07-16T06:08:16.920Z,100277.75
2023-07-16T06:10:49.419Z,100276.73
2023-07-16T06:13:21.990Z,100273.59
2023-07-16T06:15:54.164Z,100268.87
2023-07-16T06:18:26.610Z,100270.21
2023-07-16T06:20:58.655Z,100270.14
2023-07-16T06:23:31.210Z,100276.13
2023-07-16T06:26:04.056Z,100282.65
2023-07-16T06:28:36.475Z,100285.50
2023-07-16T06:31:08.622Z,100294.55
2023-07-16T06:33:40.769Z,100291.89
2023-07-16T06:36:14.149Z,100296.36
2023-07-16T06:38:46.763Z,100303.39
2023-07-16T06:41:19.856Z,100307.05
2023-07-16T06:43:51.950Z,100306.20
2023-07-16T06:46:24.134Z,100308.14
2023-07-16T06:48:56.452Z,100314.70
2023-07-16T06:51:29.732Z,100312.30
2023-07-16T06:54:01.946Z,100312.95
2023-07-16T06:56:34.241Z,100321.96
2023-07-16T06:59:06.581Z,100328.13
2023-07-16T07:01:38.710Z,100338.27
2023-07-16T07:04:11.133Z,100344.39
2023-07-16T07:06:43.321Z,100368.10
2023-07-16T07:09:15.990Z,100376.66
2023-07-16T07:11:48.803Z,100387.06
2023-07-16T07:14:21.088Z,100371.80
2023-07-16T07:16:53.338Z,100358.33
2023-07-16T07:19:25.562Z,100351.84
2023-07-16T07:21:57.890Z,100353.08
2023-07-16T07:24:30.406Z,100354.63
2023-07-16T07:27:02.630Z,100360.77
2023-07-16T07:29:34.943Z,100361.06
2023-07-16T07:32:08.350Z,100360.63
2023-07-16T07:34:41.982Z,100358.90
2023-07-16T07:37:14.244Z,100365.98
2023-07-16T07:39:48.874Z,100371.29
2023-07-16T07:42:22.981Z,100373.77
2023-07-16T07:44:56.590Z,100375.27
2023-07-16T07:47:28.886Z,100377.27
2023-07-16T07:50:01.325Z,100385.11
2023-07-16T07:52:33.466Z,100395.19
2023-07-16T07:55:06.318Z,100395.98
2023-07-16T07:57:38.520Z,100411.15
2023-07-16T08:00:13.655Z,100396.30
2023-07-16T08:02:48.000Z,100411.95
2023-07-16T08:05:20.602Z,100437.48
2023-07-16T08:07:54.461Z,100434.95
2023-07-16T08:10:27.062Z,100455.76
2023-07-16T08:12:59.504Z,100458.83
2023-07-16T08:15:31.760Z,100456.41
2023-07-16T08:18:03.969Z,100463.52
2023-07-16T08:20:37.648Z,100462.73
2023-07-16T08:23:09.816Z,100462.55
2023-07-16T08:25:42.174Z,100460.61
2023-07-16T08:28:14.601Z,100462.95
2023-07-16T08:30:50.266Z,100464.48
2023-07-16T08:33:22.536Z,100468.89
2023-07-16T08:35:54.983Z,100469.21
2023-07-16T08:38:27.473Z,100469.73
2023-07-16T08:40:59.867Z,100464.77
2023-07-16T08:43:32.688Z,100460.75
2023-07-16T08:46:06.094Z,100453.69
2023-07-16T08:48:38.426Z,100449.48
2023-07-16T08:51:11.980Z,100446.95
2023-07-16T08:53:44.698Z,100455.33
2023-07-16T08:56:17.408Z,100447.79
2023-07-16T08:58:51.390Z,100438.84
2023-07-16T09:01:24.362Z,100436.49
2023-07-16T09:03:56.853Z,100434.48
2023-07-16T09:06:29.280Z,100430.29
2023-07-16T09:09:01.673Z,100444.02
2023-07-16T09:11:35.464Z,100453.71
2023-07-16T09:14:07.965Z,100465.39
2023-07-16T09:16:40.082Z,100478.59
2023-07-16T09:19:14.998Z,100471.45
2023-07-16T09:21:50.205Z,100455.28
2023-07-16T09:24:22.851Z,100431.99
2023-07-16T09:26:56.665Z,100450.16
2023-07-16T09:29:29.148Z,100440.14
2023-07-16T09:32:03.672Z,100435.70
2023-07-16T09:34:34.645Z,100452.39
2023-07-16T09:37:08.700Z,100445.24
2023-07-16T09:39:41.432Z,100453.77
2023-07-16T09:42:15.241Z,100446.10
2023-07-16T09:44:48.474Z,100447.86
2023-07-16T09:47:20.690Z,100428.86
2023-07-16T09:49:53.821Z,100422.82
2023-07-16T09:52:28.607Z,100424.59
2023-07-16T09:55:03.397Z,100435.60
2023-07-16T09:57:38.182Z,100441.79
2023-07-16T10:00:12.736Z,100445.77
2023-07-16T10:02:49.508Z,100442.58
2023-07-16T10:05:30.634Z,100450.14
2023-07-16T10:08:03.202Z,100448.20
2023-07-16T10:10:45.114Z,100441.80
2023-07-16T10:13:18.537Z,100443.80
2023-07-16T10:15:58.143Z,100426.89
2023-07-16T10:18:33.588Z,100449.98
2023-07-16T10:21:08.800Z,100455.15
2023-07-16T10:23:43.023Z,100465.33
2023-07-16T10:26:20.094Z,100465.21
2023-07-16T10:28:52.790Z,100465.85
2023-07-16T10:31:26.284Z,100467.36
2023-07-16T10:34:07.063Z,100474.58
2023-07-16T10:36:42.771Z,100473.67
2023-07-16T10:39:17.355Z,100470.64
2023-07-16T10:41:49.752Z,100474.77
2023-07-16T10:44:25.480Z,100475.59
2023-07-16T10:46:57.793Z,100467.32
2023-07-16T10:49:32.984Z,100458.84
2023-07-16T10:52:05.895Z,100462.82
2023-07-16T10:54:38.276Z,100462.54
2023-07-16T10:57:10.727Z,100462.20
2023-07-16T10:59:45.232Z,100456.63
2023-07-16T11:02:18.537Z,100448.48
2023-07-16T11:04:51.631Z,100452.39
2023-07-16T11:07:24.045Z,100451.38
2023-07-16T11:09:57.294Z,100448.19
2023-07-16T11:12:29.408Z,100452.69
2023-07-16T11:15:02.038Z,100451.63
2023-07-16T11:17:34.589Z,100454.41
2023-07-16T11:20:11.238Z,100453.35
2023-07-16T11:22:43.575Z,100449.77
2023-07-16T11:25:21.671Z,100446.48
2023-07-16T11:27:58.219Z,100446.87
2023-07-16T11:30:30.649Z,100451.88
2023-07-16T11:33:03.209Z,100451.10
2023-07-16T11:35:35.594Z,100460.95
2023-07-16T11:38:09.638Z,100463.45
2023-07-16T11:40:42.903Z,100461.48
2023-07-16T11:43:16.244Z,100460.83
2023-07-16T11:45:52.621Z,100459.92
2023-07-16T11:48:25.247Z,100465.55
2023-07-16T11:50:57.448Z,100459.45
2023-07-16T11:53:29.583Z,100460.28
2023-07-16T11:56:01.985Z,100459.84
2023-07-16T11:58:34.101Z,100460.99
2023-07-16T12:01:06.559Z,100461.11
2023-07-16T12:03:39.035Z,100468.02
2023-07-16T12:06:12.006Z,100469.11
2023-07-16T12:08:44.833Z,100465.36
2023-07-16T12:11:17.117Z,100467.29
2023-07-16T12:13:49.609Z,100463.39
2023-07-16T12:16:22.055Z,100460.02
2023-07-16T12:18:54.617Z,100467.33
2023-07-16T12:21:26.953Z,100466.84
2023-07-16T12:23:58.982Z,100462.85
2023-07-16T12:26:31.366Z,100458.51
2023-07-16T12:29:04.739Z,100456.76
2023-07-16T12:31:37.450Z,100458.26
2023-07-16T12:34:09.718Z,100465.06
2023-07-16T12:36:41.961Z,100463.52
2023-07-16T12:39:14.171Z,100468.12
2023-07-16T12:41:47.457Z,100471.31
2023-07-16T12:44:19.986Z,100471.64
2023-07-16T12:46:54.406Z,100467.91
2023-07-16T12:49:26.865Z,100464.48
2023-07-16T12:51:59.256Z,100459.73
2023-07-16T12:54:31.577Z,100458.75
2023-07-16T12:57:03.983Z,100456.05
2023-07-16T12:59:36.392Z,100453.23
2023-07-16T13:02:09.493Z,100451.98
2023-07-16T13:04:41.586Z,100453.00
2023-07-16T13:07:15.009Z,100455.48
2023-07-16T13:09:48.237Z,100453.44
2023-07-16T13:12:20.368Z,100451.48
2023-07-16T13:14:53.087Z,100451.69
2023-07-16T13:17:25.498Z,100450.05
2023-07-16T13:19:58.053Z,100446.48
2023-07-16T13:22:30.429Z,100446.21
2023-07-16T13:25:02.461Z,100450.86
2023-07-16T13:27:34.766Z,100454.15
2023-07-16T13:30:08.230Z,100449.99
2023-07-16T13:32:40.475Z,100450.80
2023-07-16T13:35:12.963Z,100455.26
2023-07-16T13:37:45.145Z,100449.78
2023-07-16T13:40:17.902Z,100462.71
2023-07-16T13:42:50.168Z,100458.28
2023-07-16T13:45:22.705Z,100455.88
2023-07-16T13:47:56.009Z,100447.19
2023-07-16T13:50:28.712Z,100456.06
2023-07-16T13:53:02.851Z,100459.96
2023-07-16T13:55:35.248Z,100461.23
2023-07-16T13:58:07.541Z,100459.27
2023-07-16T14:00:40.037Z,100465.18
2023-07-16T14:03:12.438Z,100461.48
2023-07-16T14:05:45.062Z,100461.09
2023-07-16T14:08:17.304Z,100453.58
2023-07-16T14:10:49.565Z,100459.98
2023-07-16T14:13:21.732Z,100463.16
2023-07-16T14:15:53.726Z,100461.73
2023-07-16T14:18:26.030Z,100458.33
2023-07-16T14:20:58.492Z,100462.77
2023-07-16T14:23:30.720Z,100462.17
2023-07-16T14:26:03.377Z,100456.49
2023-07-16T14:28:35.655Z,100457.70
2023-07-16T14:31:08.054Z,100463.20
2023-07-16T14:33:40.848Z,100462.13
2023-07-16T14:36:13.104Z,100458.77
2023-07-16T14:38:45.578Z,100458.86
2023-07-16T14:41:17.896Z,100455.81
2023-07-16T14:43:50.824Z,100460.23
2023-07-16T14:46:23.007Z,100458.59
2023-07-16T14:48:57.303Z,100451.80
2023-07-16T14:51:29.862Z,100447.05
2023-07-16T14:54:01.968Z,100444.00
2023-07-16T14:56:34.087Z,100439.83
2023-07-16T14:59:06.266Z,100433.66
2023-07-16T15:01:38.354Z,100434.13
2023-07-16T15:04:10.923Z,100441.20
2023-07-16T15:06:43.376Z,100442.17
2023-07-16T15:09:15.648Z,100444.69
2023-07-16T15:11:47.717Z,100438.85
2023-07-16T15:14:19.978Z,100436.44
2023-07-16T15:16:52.325Z,100437.56
2023-07-16T15:19:25.188Z,100435.14
2023-07-16T15:21:57.748Z,100433.36
2023-07-16T15:24:31.648Z,100437.70
2023-07-16T15:27:04.668Z,100441.53
2023-07-16T15:29:37.389Z,100440.00
2023-07-16T15:32:11.040Z,100435.09
2023-07-16T15:34:43.260Z,100430.81
2023-07-16T15:37:15.421Z,100431.48
2023-07-16T15:39:47.708Z,100428.97
2023-07-16T15:42:19.983Z,100436.83
2023-07-16T15:44:52.179Z,100427.52
2023-07-16T15:47:24.779Z,100429.09
2023-07-16T15:49:57.711Z,100435.29
2023-07-16T15:52:30.146Z,100430.41
2023-07-16T15:55:07.705Z,100436.07
2023-07-16T15:57:41.268Z,100427.88
2023-07-16T16:00:16.685Z,100419.36
2023-07-16T16:02:51.758Z,100420.42
2023-07-16T16:05:22.729Z,100423.02
2023-07-16T16:08:15.984Z,100432.48
2023-07-16T16:10:50.241Z,100431.33
2023-07-16T16:13:23.788Z,100429.83
2023-07-16T16:15:56.353Z,100432.81
2023-07-16T16:18:28.874Z,100435.86
2023-07-16T16:21:01.483Z,100433.77
2023-07-16T16:23:33.876Z,100437.48
2023-07-16T16:26:06.467Z,100440.11
2023-07-16T16:28:40.561Z,100439.34
2023-07-16T16:31:12.705Z,100442.85
2023-07-16T16:33:45.123Z,100446.23
2023-07-16T16:36:18.165Z,100448.72
2023-07-16T16:38:50.626Z,100441.41
2023-07-16T16:41:23.039Z,100441.08
2023-07-16T16:43:55.368Z,100432.23
2023-07-16T16:46:27.620Z,100432.84
2023-07-16T16:48:59.878Z,100444.73
2023-07-16T16:51:32.511Z,100448.09
2023-07-16T16:54:05.506Z,100443.27
2023-07-16T16:56:37.803Z,100449.48
2023-07-16T16:59:09.926Z,100445.90
2023-07-16T17:01:42.227Z,100455.30
2023-07-16T17:04:14.610Z,100453.88
2023-07-16T17:06:47.127Z,100446.90
2023-07-16T17:09:19.234Z,100451.06
2023-07-16T17:11:52.046Z,100447.16
2023-07-16T17:14:24.114Z,100445.98
2023-07-16T17:16:56.690Z,100448.98
2023-07-16T17:19:29.495Z,100450.63
2023-07-16T17:22:01.863Z,100456.70
2023-07-16T17:24:34.454Z,100462.23
2023-07-16T17:27:07.569Z,100465.59
2023-07-16T17:29:39.950Z,100464.89
2023-07-16T17:32:12.666Z,100461.79
2023-07-16T17:34:45.088Z,100462.48
2023-07-16T17:37:20.141Z,100460.70
2023-07-16T17:39:53.236Z,100465.15
2023-07-16T17:42:26.128Z,100462.74
2023-07-16T17:44:58.912Z,100468.91
2023-07-16T17:47:31.379Z,100468.92
2023-07-16T17:50:03.655Z,100473.57
2023-07-16T17:52:36.496Z,100476.11
2023-07-16T17:55:11.204Z,100474.81
2023-07-16T17:57:43.668Z,100476.02
2023-07-16T18:00:25.316Z,100482.98
2023-07-16T18:02:58.847Z,100479.39
2023-07-16T18:05:31.736Z,100477.16
2023-07-16T18:08:03.958Z,100486.56
2023-07-16T18:10:36.473Z,100488.05
2023-07-16T18:13:08.524Z,100479.13
2023-07-16T18:15:40.964Z,100492.23
2023-07-16T18:18:13.449Z,100494.44
2023-07-16T18:20:46.584Z,100493.77
2023-07-16T18:23:19.532Z,100495.80
2023-07-16T18:25:53.026Z,100498.77
2023-07-16T18:28:25.350Z,100499.10
2023-07-16T18:31:00.171Z,100506.84
2023-07-16T18:33:32.370Z,100506.63
2023-07-16T18:36:07.456Z,100513.07
2023-07-16T18:38:39.738Z,100513.67
2023-07-16T18:41:12.090Z,100515.83
2023-07-16T18:43:46.430Z,100515.67
2023-07-16T18:46:19.030Z,100516.67
2023-07-16T18:48:51.628Z,100517.86
2023-07-16T18:51:24.109Z,100519.42
2023-07-16T18:53:56.413Z,100526.31
2023-07-16T18:56:28.850Z,100529.64
2023-07-16T18:59:01.041Z,100529.60
2023-07-16T19:01:33.495Z,100531.70
2023-07-16T19:04:05.838Z,100538.19
2023-07-16T19:06:38.678Z,100541.83
2023-07-16T19:09:10.968Z,100549.14
2023-07-16T19:11:43.228Z,100550.29
2023-07-16T19:14:15.601Z,100548.83
2023-07-16T19:16:48.172Z,100549.08
2023-07-16T19:19:20.548Z,100551.23
2023-07-16T19:21:52.946Z,100554.20
2023-07-16T19:24:25.202Z,100559.97
2023-07-16T19:26:57.690Z,100560.59
2023-07-16T19:29:30.113Z,100549.09
2023-07-16T19:32:02.405Z,100562.73
2023-07-16T19:34:35.851Z,100561.52
2023-07-16T19:37:09.393Z,100564.02
2023-07-16T19:39:41.435Z,100562.77
2023-07-16T19:42:14.085Z,100567.92
2023-07-16T19:44:46.938Z,100570.77
2023-07-16T19:47:19.053Z,100575.76
2023-07-16T19:49:52.491Z,100575.77
2023-07-16T19:52:26.480Z,100580.06
2023-07-16T19:55:01.510Z,100578.11
2023-07-16T19:57:36.012Z,100575.33
2023-07-16T20:00:12.364Z,100575.80
2023-07-16T20:02:48.304Z,100573.23
2023-07-16T20:05:21.250Z,100575.16
2023-07-16T20:07:53.483Z,100577.38
2023-07-16T20:10:25.988Z,100570.69
2023-07-16T20:12:58.149Z,100573.17
2023-07-16T20:15:30.789Z,100577.98
2023-07-16T20:18:05.295Z,100575.41
2023-07-16T20:20:37.611Z,100571.29
2023-07-16T20:23:10.033Z,100572.66
2023-07-16T20:25:43.389Z,100576.69
2023-07-16T20:28:20.826Z,100579.16
2023-07-16T20:30:54.116Z,100575.09
2023-07-16T20:33:26.434Z,100574.16
2023-07-16T20:35:58.658Z,100572.15
2023-07-16T20:38:31.218Z,100575.86
2023-07-16T20:41:03.714Z,100573.40
2023-07-16T20:43:35.989Z,100571.65
2023-07-16T20:46:08.308Z,100572.75
2023-07-16T20:48:43.744Z,100568.72
2023-07-16T20:51:17.223Z,100571.23
2023-07-16T20:53:49.815Z,100568.45
2023-07-16T20:56:22.489Z,100570.02
2023-07-16T20:58:55.314Z,100575.69
2023-07-16T21:01:28.071Z,100573.21
2023-07-16T21:04:01.893Z,100579.35
2023-07-16T21:06:34.147Z,100577.90
2023-07-16T21:09:06.627Z,100584.50
2023-07-16T21:11:39.147Z,100585.20
2023-07-16T21:14:11.536Z,100581.54
2023-07-16T21:16:44.176Z,100576.14
2023-07-16T21:19:16.399Z,100576.50
2023-07-16T21:21:48.638Z,100583.76
2023-07-16T21:24:22.316Z,100581.67
2023-07-16T21:26:54.739Z,100581.30
2023-07-16T21:29:27.248Z,100583.67
2023-07-16T21:31:59.393Z,100581.97
2023-07-16T21:34:31.459Z,100587.91
2023-07-16T21:37:03.964Z,100582.15
2023-07-16T21:39:36.810Z,100585.89
2023-07-16T21:42:10.668Z,100584.66
2023-07-16T21:44:42.740Z,100586.41
2023-07-16T21:47:15.362Z,100593.89
2023-07-16T21:49:47.614Z,100596.35
2023-07-16T21:52:20.008Z,100596.55
2023-07-16T21:54:52.359Z,100595.04
2023-07-16T21:57:25.407Z,100595.06
2023-07-16T21:59:57.801Z,100593.06
2023-07-16T22:02:30.294Z,100593.91
2023-07-16T22:05:02.385Z,100592.58
2023-07-16T22:07:34.669Z,100590.65
2023-07-16T22:10:08.037Z,100587.73
2023-07-16T22:12:41.019Z,100590.35
2023-07-16T22:15:13.533Z,100590.83
2023-07-16T22:17:48.087Z,100590.85
2023-07-16T22:20:26.528Z,100595.05
2023-07-16T22:22:59.496Z,100595.48
2023-07-16T22:25:32.121Z,100596.14
2023-07-16T22:28:05.120Z,100598.56
2023-07-16T22:30:37.663Z,100599.77
2023-07-16T22:33:09.939Z,100601.66
2023-07-16T22:35:42.149Z,100604.81
2023-07-16T22:38:14.852Z,100604.40
2023-07-16T22:40:46.967Z,100602.19
2023-07-16T22:43:19.450Z,100602.09
2023-07-16T22:45:51.588Z,100607.57
2023-07-16T22:48:23.948Z,100610.02
2023-07-16T22:50:56.120Z,100605.77
2023-07-16T22:53:28.365Z,100603.44
2023-07-16T22:56:01.026Z,100604.44
2023-07-16T22:58:33.657Z,100608.81
2023-07-16T23:01:09.631Z,100607.11
2023-07-16T23:03:41.868Z,100605.95
2023-07-16T23:06:14.464Z,100608.91
2023-07-16T23:08:47.202Z,100612.58
2023-07-16T23:11:19.788Z,100616.55
2023-07-16T23:13:52.595Z,100618.38
2023-07-16T23:16:25.061Z,100621.86
2023-07-16T23:18:58.272Z,100617.16
2023-07-16T23:21:31.114Z,100618.02
2023-07-16T23:24:03.482Z,100617.11
2023-07-16T23:26:35.729Z,100618.53
2023-07-16T23:29:09.791Z,100625.80
2023-07-16T23:31:43.081Z,100628.09
2023-07-16T23:34:15.959Z,100634.38
2023-07-16T23:36:48.204Z,100636.72
2023-07-16T23:39:20.858Z,100631.96
2023-07-16T23:41:53.234Z,100632.23
2023-07-16T23:44:26.080Z,100635.27
2023-07-16T23:46:58.472Z,100636.23
2023-07-16T23:49:31.231Z,100636.54
2023-07-16T23:52:04.015Z,100638.00
2023-07-16T23:54:36.326Z,100639.41
2023-07-16T23:57:08.731Z,100632.09
2023-07-16T23:59:41.290Z,100644.02
